sensor_id;sensor_type;location;lat;lon;timestamp;pressure;altitude;pressure_sealevel;temperature;humidity
7168;BME280;3625;51.762;14.320;2023-01-29T00:02:28;101935.03;;;-1.17;100.00
7168;BME280;3625;51.762;14.320;2023-01-29T00:04:57;101932.59;;;-1.31;100.00
7168;BME280;3625;51.762;14.320;2023-01-29T00:07:47;101925.78;;;-1.45;100.00
7168;BME280;3625;51.762;14.320;2023-01-29T00:10:16;101916.91;;;-1.50;100.00
7168;BME280;3625;51.762;14.320;2023-01-29T00:12:47;101915.63;;;-1.59;100.00
7168;BME280;3625;51.762;14.320;2023-01-29T00:15:20;101904.38;;;-1.59;100.00
7168;BME280;3625;51.762;14.320;2023-01-29T00:17:49;101905.81;;;-1.64;100.00
7168;BME280;3625;51.762;14.320;2023-01-29T00:20:19;101902.84;;;-1.72;100.00
7168;BME280;3625;51.762;14.320;2023-01-29T00:22:48;101898.97;;;-1.80;100.00
7168;BME280;3625;51.762;14.320;2023-01-29T00:25:20;101895.56;;;-1.79;100.00
7168;BME280;3625;51.762;14.320;2023-01-29T00:27:51;101894.47;;;-1.84;100.00
7168;BME280;3625;51.762;14.320;2023-01-29T00:30:20;101899.47;;;-1.87;100.00
7168;BME280;3625;51.762;14.320;2023-01-29T00:32:50;101900.97;;;-1.92;100.00
7168;BME280;3625;51.762;14.320;2023-01-29T00:35:21;101907.69;;;-1.96;100.00
7168;BME280;3625;51.762;14.320;2023-01-29T00:37:50;101907.38;;;-2.02;100.00
7168;BME280;3625;51.762;14.320;2023-01-29T00:40:19;101907.38;;;-2.02;100.00
7168;BME280;3625;51.762;14.320;2023-01-29T00:42:53;101902.75;;;-2.07;100.00
7168;BME280;3625;51.762;14.320;2023-01-29T00:45:39;101899.22;;;-2.09;100.00
7168;BME280;3625;51.762;14.320;2023-01-29T00:48:08;101898.81;;;-2.17;100.00
7168;BME280;3625;51.762;14.320;2023-01-29T00:50:37;101896.94;;;-2.19;100.00
7168;BME280;3625;51.762;14.320;2023-01-29T00:53:06;101903.03;;;-2.19;100.00
7168;BME280;3625;51.762;14.320;2023-01-29T00:55:37;101896.84;;;-2.21;100.00
7168;BME280;3625;51.762;14.320;2023-01-29T00:58:08;101892.09;;;-2.30;100.00
7168;BME280;3625;51.762;14.320;2023-01-29T01:00:37;101886.00;;;-2.30;100.00
7168;BME280;3625;51.762;14.320;2023-01-29T01:03:10;101883.09;;;-2.36;100.00
7168;BME280;3625;51.762;14.320;2023-01-29T01:05:41;101876.94;;;-2.38;100.00
7168;BME280;3625;51.762;14.320;2023-01-29T01:08:10;101871.84;;;-2.37;100.00
7168;BME280;3625;51.762;14.320;2023-01-29T01:11:00;101876.06;;;-2.39;100.00
7168;BME280;3625;51.762;14.320;2023-01-29T01:13:34;101860.50;;;-2.39;100.00
7168;BME280;3625;51.762;14.320;2023-01-29T01:16:09;101859.53;;;-2.41;100.00
7168;BME280;3625;51.762;14.320;2023-01-29T01:18:42;101867.66;;;-2.35;100.00
7168;BME280;3625;51.762;14.320;2023-01-29T01:21:11;101868.69;;;-2.31;100.00
7168;BME280;3625;51.762;14.320;2023-01-29T01:23:40;101871.19;;;-2.33;100.00
7168;BME280;3625;51.762;14.320;2023-01-29T01:26:09;101869.09;;;-2.40;100.00
7168;BME280;3625;51.762;14.320;2023-01-29T01:28:39;101873.56;;;-2.37;100.00
7168;BME280;3625;51.762;14.320;2023-01-29T01:31:10;101868.28;;;-2.39;100.00
7168;BME280;3625;51.762;14.320;2023-01-29T01:33:43;101865.78;;;-2.37;100.00
7168;BME280;3625;51.762;14.320;2023-01-29T01:36:14;101856.22;;;-2.38;100.00
7168;BME280;3625;51.762;14.320;2023-01-29T01:38:43;101849.91;;;-2.43;100.00
7168;BME280;3625;51.762;14.320;2023-01-29T01:41:16;101848.84;;;-2.47;100.00
7168;BME280;3625;51.762;14.320;2023-01-29T01:43:53;101854.22;;;-2.44;100.00
7168;BME280;3625;51.762;14.320;2023-01-29T01:46:28;101841.88;;;-2.48;100.00
7168;BME280;3625;51.762;14.320;2023-01-29T01:49:02;101843.19;;;-2.56;100.00
7168;BME280;3625;51.762;14.320;2023-01-29T01:51:38;101840.78;;;-2.53;100.00
7168;BME280;3625;51.762;14.320;2023-01-29T01:54:20;101702.25;;;-3.26;100.00
7168;BME280;3625;51.762;14.320;2023-01-29T01:56:59;101554.84;;;-4.22;100.00
7168;BME280;3625;51.762;14.320;2023-01-29T01:59:40;101849.19;;;-2.57;100.00
7168;BME280;3625;51.762;14.320;2023-01-29T02:02:22;101845.28;;;-2.65;100.00
7168;BME280;3625;51.762;14.320;2023-01-29T02:05:10;101834.84;;;-2.67;100.00
7168;BME280;3625;51.762;14.320;2023-01-29T02:07:58;101843.91;;;-2.75;100.00
7168;BME280;3625;51.762;14.320;2023-01-29T02:10:47;101845.69;;;-2.74;100.00
7168;BME280;3625;51.762;14.320;2023-01-29T02:13:18;101844.41;;;-2.82;100.00
7168;BME280;3625;51.762;14.320;2023-01-29T02:15:52;101849.00;;;-2.76;100.00
7168;BME280;3625;51.762;14.320;2023-01-29T02:18:23;101839.13;;;-2.67;100.00
7168;BME280;3625;51.762;14.320;2023-01-29T02:21:18;101527.59;;;-4.47;100.00
7168;BME280;3625;51.762;14.320;2023-01-29T02:24:38;101782.16;;;-2.99;100.00
7168;BME280;3625;51.762;14.320;2023-01-29T02:27:18;101750.47;;;-3.12;100.00
7168;BME280;3625;51.762;14.320;2023-01-29T02:30:00;101586.63;;;-4.08;100.00
7168;BME280;3625;51.762;14.320;2023-01-29T02:32:40;101748.44;;;-3.01;100.00
7168;BME280;3625;51.762;14.320;2023-01-29T02:35:33;101766.81;;;-2.80;100.00
7168;BME280;3625;51.762;14.320;2023-01-29T02:38:16;101743.91;;;-2.89;100.00
7168;BME280;3625;51.762;14.320;2023-01-29T02:40:53;101843.97;;;-2.08;100.00
7168;BME280;3625;51.762;14.320;2023-01-29T02:43:40;101789.88;;;-2.18;100.00
7168;BME280;3625;51.762;14.320;2023-01-29T02:46:20;101836.28;;;-1.71;100.00
7168;BME280;3625;51.762;14.320;2023-01-29T02:49:00;101832.91;;;-1.53;100.00
7168;BME280;3625;51.762;14.320;2023-01-29T02:51:42;101632.56;;;-2.55;100.00
7168;BME280;3625;51.762;14.320;2023-01-29T02:54:18;101836.00;;;-1.24;100.00
7168;BME280;3625;51.762;14.320;2023-01-29T02:56:57;101567.25;;;-2.83;100.00
7168;BME280;3625;51.762;14.320;2023-01-29T02:59:36;101836.94;;;-1.04;100.00
7168;BME280;3625;51.762;14.320;2023-01-29T03:02:29;101589.25;;;-2.40;100.00
7168;BME280;3625;51.762;14.320;2023-01-29T03:05:05;101827.09;;;-0.92;100.00
7168;BME280;3625;51.762;14.320;2023-01-29T03:07:43;101817.59;;;-0.92;100.00
7168;BME280;3625;51.762;14.320;2023-01-29T03:10:31;101816.88;;;-0.89;100.00
7168;BME280;3625;51.762;14.320;2023-01-29T03:13:14;101817.75;;;-0.89;100.00
7168;BME280;3625;51.762;14.320;2023-01-29T03:15:54;101824.19;;;-0.81;100.00
7168;BME280;3625;51.762;14.320;2023-01-29T03:18:48;101674.00;;;-1.66;100.00
7168;BME280;3625;51.762;14.320;2023-01-29T03:21:30;101614.03;;;-1.92;100.00
7168;BME280;3625;51.762;14.320;2023-01-29T03:24:32;101829.03;;;-0.69;100.00
7168;BME280;3625;51.762;14.320;2023-01-29T03:27:28;101815.28;;;-0.66;100.00
7168;BME280;3625;51.762;14.320;2023-01-29T03:30:20;101811.06;;;-0.64;100.00
7168;BME280;3625;51.762;14.320;2023-01-29T03:33:34;101815.56;;;-0.60;100.00
7168;BME280;3625;51.762;14.320;2023-01-29T03:36:13;101758.03;;;-0.89;100.00
7168;BME280;3625;51.762;14.320;2023-01-29T03:38:43;101809.03;;;-0.52;100.00
7168;BME280;3625;51.762;14.320;2023-01-29T03:41:24;101626.13;;;-1.54;100.00
7168;BME280;3625;51.762;14.320;2023-01-29T03:44:11;101654.94;;;-1.28;100.00
7168;BME280;3625;51.762;14.320;2023-01-29T03:46:49;101794.25;;;-0.53;100.00
7168;BME280;3625;51.762;14.320;2023-01-29T03:49:31;101796.03;;;-0.52;100.00
7168;BME280;3625;51.762;14.320;2023-01-29T03:52:27;101796.28;;;-0.46;100.00
7168;BME280;3625;51.762;14.320;2023-01-29T03:55:22;101769.56;;;-0.63;100.00
7168;BME280;3625;51.762;14.320;2023-01-29T03:58:03;101802.31;;;-0.47;100.00
7168;BME280;3625;51.762;14.320;2023-01-29T04:00:39;101796.28;;;-0.46;100.00
7168;BME280;3625;51.762;14.320;2023-01-29T04:03:17;101750.16;;;-0.71;100.00
7168;BME280;3625;51.762;14.320;2023-01-29T04:05:55;101800.09;;;-0.38;100.00
7168;BME280;3625;51.762;14.320;2023-01-29T04:08:43;101791.59;;;-0.34;100.00
7168;BME280;3625;51.762;14.320;2023-01-29T04:11:24;101692.66;;;-0.79;100.00
7168;BME280;3625;51.762;14.320;2023-01-29T04:14:01;101774.25;;;-0.35;100.00
7168;BME280;3625;51.762;14.320;2023-01-29T04:16:48;101760.06;;;-0.42;100.00
7168;BME280;3625;51.762;14.320;2023-01-29T04:19:29;101779.63;;;-0.30;100.00
7168;BME280;3625;51.762;14.320;2023-01-29T04:22:05;101711.34;;;-0.66;100.00
7168;BME280;3625;51.762;14.320;2023-01-29T04:24:38;101774.38;;;-0.32;100.00
7168;BME280;3625;51.762;14.320;2023-01-29T04:27:22;101763.00;;;-0.34;100.00
7168;BME280;3625;51.762;14.320;2023-01-29T04:30:09;101743.06;;;-0.35;100.00
7168;BME280;3625;51.762;14.320;2023-01-29T04:32:58;101693.31;;;-0.63;100.00
7168;BME280;3625;51.762;14.320;2023-01-29T04:35:47;101716.59;;;-0.46;100.00
7168;BME280;3625;51.762;14.320;2023-01-29T04:38:33;101679.34;;;-0.65;100.00
7168;BME280;3625;51.762;14.320;2023-01-29T04:41:15;101486.09;;;-1.71;100.00
7168;BME280;3625;51.762;14.320;2023-01-29T04:44:01;101704.34;;;-0.48;100.00
7168;BME280;3625;51.762;14.320;2023-01-29T04:46:38;101740.28;;;-0.19;100.00
7168;BME280;3625;51.762;14.320;2023-01-29T04:49:22;101736.72;;;-0.21;100.00
7168;BME280;3625;51.762;14.320;2023-01-29T04:52:05;101721.78;;;-0.25;100.00
7168;BME280;3625;51.762;14.320;2023-01-29T04:54:58;101715.84;;;-0.22;100.00
7168;BME280;3625;51.762;14.320;2023-01-29T04:57:35;101714.38;;;-0.16;100.00
7168;BME280;3625;51.762;14.320;2023-01-29T05:00:16;101683.56;;;-0.27;100.00
7168;BME280;3625;51.762;14.320;2023-01-29T05:02:48;101718.06;;;-0.11;100.00
7168;BME280;3625;51.762;14.320;2023-01-29T05:05:19;101559.19;;;-1.01;100.00
7168;BME280;3625;51.762;14.320;2023-01-29T05:07:54;101717.94;;;-0.14;100.00
7168;BME280;3625;51.762;14.320;2023-01-29T05:10:27;101701.44;;;-0.14;100.00
7168;BME280;3625;51.762;14.320;2023-01-29T05:13:03;101642.69;;;-0.52;100.00
7168;BME280;3625;51.762;14.320;2023-01-29T05:15:38;101711.66;;;-0.19;100.00
7168;BME280;3625;51.762;14.320;2023-01-29T05:18:21;101705.66;;;-0.18;100.00
7168;BME280;3625;51.762;14.320;2023-01-29T05:20:56;101671.00;;;-0.38;100.00
7168;BME280;3625;51.762;14.320;2023-01-29T05:23:32;101705.75;;;-0.15;100.00
7168;BME280;3625;51.762;14.320;2023-01-29T05:26:03;101696.88;;;-0.20;100.00
7168;BME280;3625;51.762;14.320;2023-01-29T05:28:39;101688.78;;;-0.27;100.00
7168;BME280;3625;51.762;14.320;2023-01-29T05:31:09;101695.09;;;-0.21;100.00
7168;BME280;3625;51.762;14.320;2023-01-29T05:33:38;101699.66;;;-0.15;100.00
7168;BME280;3625;51.762;14.320;2023-01-29T05:36:09;101698.00;;;-0.13;100.00
7168;BME280;3625;51.762;14.320;2023-01-29T05:38:39;101697.78;;;-0.19;100.00
7168;BME280;3625;51.762;14.320;2023-01-29T05:41:10;101703.03;;;-0.18;100.00
7168;BME280;3625;51.762;14.320;2023-01-29T05:43:40;101704.78;;;-0.17;100.00
7168;BME280;3625;51.762;14.320;2023-01-29T05:46:09;101713.69;;;-0.12;100.00
7168;BME280;3625;51.762;14.320;2023-01-29T05:48:38;101709.53;;;-0.07;100.00
7168;BME280;3625;51.762;14.320;2023-01-29T05:51:13;101712.34;;;-0.02;100.00
7168;BME280;3625;51.762;14.320;2023-01-29T05:53:45;101719.38;;;0.00;100.00
7168;BME280;3625;51.762;14.320;2023-01-29T05:56:14;101707.78;;;-0.08;100.00
7168;BME280;3625;51.762;14.320;2023-01-29T05:58:44;101721.66;;;-0.07;100.00
7168;BME280;3625;51.762;14.320;2023-01-29T06:01:15;101732.88;;;-0.08;100.00
7168;BME280;3625;51.762;14.320;2023-01-29T06:03:48;101738.47;;;0.01;100.00
7168;BME280;3625;51.762;14.320;2023-01-29T06:06:23;101732.13;;;-0.06;100.00
7168;BME280;3625;51.762;14.320;2023-01-29T06:08:52;101748.69;;;-0.04;100.00
7168;BME280;3625;51.762;14.320;2023-01-29T06:11:21;101743.63;;;-0.01;100.00
7168;BME280;3625;51.762;14.320;2023-01-29T06:13:51;101743.66;;;0.01;100.00
7168;BME280;3625;51.762;14.320;2023-01-29T06:16:20;101750.59;;;0.00;100.00
7168;BME280;3625;51.762;14.320;2023-01-29T06:18:49;101750.47;;;-0.03;100.00
7168;BME280;3625;51.762;14.320;2023-01-29T06:21:23;101757.63;;;0.03;100.00
7168;BME280;3625;51.762;14.320;2023-01-29T06:23:52;101742.03;;;0.03;100.00
7168;BME280;3625;51.762;14.320;2023-01-29T06:26:21;101748.69;;;-0.04;100.00
7168;BME280;3625;51.762;14.320;2023-01-29T06:28:53;101757.16;;;-0.09;100.00
7168;BME280;3625;51.762;14.320;2023-01-29T06:31:22;101768.56;;;-0.06;100.00
7168;BME280;3625;51.762;14.320;2023-01-29T06:34:05;101780.81;;;-0.03;100.00
7168;BME280;3625;51.762;14.320;2023-01-29T06:36:38;101777.25;;;-0.05;100.00
7168;BME280;3625;51.762;14.320;2023-01-29T06:39:15;101774.47;;;-0.10;100.00
7168;BME280;3625;51.762;14.320;2023-01-29T06:41:47;101775.16;;;-0.14;100.00
7168;BME280;3625;51.762;14.320;2023-01-29T06:44:18;101773.25;;;-0.18;100.00
7168;BME280;3625;51.762;14.320;2023-01-29T06:46:51;101779.38;;;-0.16;100.00
7168;BME280;3625;51.762;14.320;2023-01-29T06:49:20;101791.56;;;-0.15;100.00
7168;BME280;3625;51.762;14.320;2023-01-29T06:51:50;101788.97;;;-0.15;100.00
7168;BME280;3625;51.762;14.320;2023-01-29T06:54:22;101784.66;;;-0.14;100.00
7168;BME280;3625;51.762;14.320;2023-01-29T06:56:53;101773.38;;;-0.15;100.00
7168;BME280;3625;51.762;14.320;2023-01-29T06:59:26;101766.75;;;-0.07;100.00
7168;BME280;3625;51.762;14.320;2023-01-29T07:02:04;101767.09;;;0.01;100.00
7168;BME280;3625;51.762;14.320;2023-01-29T07:04:34;101772.34;;;0.03;100.00
7168;BME280;3625;51.762;14.320;2023-01-29T07:07:07;101770.72;;;0.05;100.00
7168;BME280;3625;51.762;14.320;2023-01-29T07:09:48;101778.19;;;0.18;100.00
7168;BME280;3625;51.762;14.320;2023-01-29T07:12:17;101771.59;;;0.26;100.00
7168;BME280;3625;51.762;14.320;2023-01-29T07:14:50;101776.84;;;0.27;100.00
7168;BME280;3625;51.762;14.320;2023-01-29T07:17:19;101774.00;;;0.21;100.00
7168;BME280;3625;51.762;14.320;2023-01-29T07:19:50;101773.63;;;0.33;100.00
7168;BME280;3625;51.762;14.320;2023-01-29T07:22:23;101767.69;;;0.37;100.00
7168;BME280;3625;51.762;14.320;2023-01-29T07:24:52;101761.00;;;0.44;100.00
7168;BME280;3625;51.762;14.320;2023-01-29T07:27:21;101769.16;;;0.51;100.00
7168;BME280;3625;51.762;14.320;2023-01-29T07:29:54;101776.00;;;0.49;100.00
7168;BME280;3625;51.762;14.320;2023-01-29T07:32:23;101765.22;;;0.40;100.00
7168;BME280;3625;51.762;14.320;2023-01-29T07:34:54;101752.22;;;0.40;100.00
7168;BME280;3625;51.762;14.320;2023-01-29T07:37:23;101743.09;;;0.51;100.00
7168;BME280;3625;51.762;14.320;2023-01-29T07:39:52;101740.50;;;0.51;100.00
7168;BME280;3625;51.762;14.320;2023-01-29T07:42:22;101738.78;;;0.52;100.00
7168;BME280;3625;51.762;14.320;2023-01-29T07:44:52;101741.91;;;0.65;100.00
7168;BME280;3625;51.762;14.320;2023-01-29T07:47:21;101742.75;;;0.64;100.00
7168;BME280;3625;51.762;14.320;2023-01-29T07:49:50;101739.72;;;0.54;100.00
7168;BME280;3625;51.762;14.320;2023-01-29T07:52:21;101743.63;;;0.65;100.00
7168;BME280;3625;51.762;14.320;2023-01-29T07:54:52;101730.78;;;0.69;100.00
7168;BME280;3625;51.762;14.320;2023-01-29T07:57:21;101731.09;;;0.77;100.00
7168;BME280;3625;51.762;14.320;2023-01-29T07:59:50;101728.63;;;0.82;100.00
7168;BME280;3625;51.762;14.320;2023-01-29T08:02:21;101728.09;;;0.90;100.00
7168;BME280;3625;51.762;14.320;2023-01-29T08:04:53;101722.13;;;0.93;100.00
7168;BME280;3625;51.762;14.320;2023-01-29T08:07:23;101734.25;;;0.92;100.00
7168;BME280;3625;51.762;14.320;2023-01-29T08:09:52;101731.72;;;0.94;100.00
7168;BME280;3625;51.762;14.320;2023-01-29T08:12:21;101736.19;;;0.98;100.00
7168;BME280;3625;51.762;14.320;2023-01-29T08:14:56;101736.09;;;0.95;100.00
7168;BME280;3625;51.762;14.320;2023-01-29T08:17:41;101737.91;;;0.97;100.00
7168;BME280;3625;51.762;14.320;2023-01-29T08:20:26;101666.53;;;0.46;100.00
7168;BME280;3625;51.762;14.320;2023-01-29T08:23:00;101723.91;;;0.94;100.00
7168;BME280;3625;51.762;14.320;2023-01-29T08:25:35;101727.00;;;1.07;100.00
7168;BME280;3625;51.762;14.320;2023-01-29T08:28:09;101725.97;;;1.02;100.00
7168;BME280;3625;51.762;14.320;2023-01-29T08:30:54;101714.91;;;1.09;100.00
7168;BME280;3625;51.762;14.320;2023-01-29T08:33:28;101698.00;;;0.98;100.00
7168;BME280;3625;51.762;14.320;2023-01-29T08:36:07;101700.53;;;0.97;100.00
7168;BME280;3625;51.762;14.320;2023-01-29T08:38:38;101698.06;;;1.00;100.00
7168;BME280;3625;51.762;14.320;2023-01-29T08:41:11;101695.28;;;1.19;100.00
7168;BME280;3625;51.762;14.320;2023-01-29T08:43:47;101707.19;;;1.12;100.00
7168;BME280;3625;51.762;14.320;2023-01-29T08:46:16;101707.09;;;1.09;100.00
7168;BME280;3625;51.762;14.320;2023-01-29T08:48:51;101710.81;;;1.16;100.00
7168;BME280;3625;51.762;14.320;2023-01-29T08:51:55;101697.41;;;1.29;100.00
7168;BME280;3625;51.762;14.320;2023-01-29T08:54:38;101693.78;;;1.26;100.00
7168;BME280;3625;51.762;14.320;2023-01-29T08:57:35;101481.97;;;0.05;100.00
7168;BME280;3625;51.762;14.320;2023-01-29T09:00:07;101692.50;;;1.38;100.00
7168;BME280;3625;51.762;14.320;2023-01-29T09:02:46;101688.56;;;1.51;100.00
7168;BME280;3625;51.762;14.320;2023-01-29T09:05:24;101687.75;;;1.52;100.00
7168;BME280;3625;51.762;14.320;2023-01-29T09:08:06;101686.91;;;1.53;100.00
7168;BME280;3625;51.762;14.320;2023-01-29T09:11:06;101692.31;;;1.59;100.00
7168;BME280;3625;51.762;14.320;2023-01-29T09:14:05;101694.88;;;1.58;100.00
7168;BME280;3625;51.762;14.320;2023-01-29T09:16:39;101693.59;;;1.70;100.00
7168;BME280;3625;51.762;14.320;2023-01-29T09:19:22;101630.00;;;1.41;100.00
7168;BME280;3625;51.762;14.320;2023-01-29T09:21:59;101653.97;;;1.55;100.00
7168;BME280;3625;51.762;14.320;2023-01-29T09:24:35;101684.88;;;1.70;100.00
7168;BME280;3625;51.762;14.320;2023-01-29T09:27:16;101687.84;;;1.80;100.00
7168;BME280;3625;51.762;14.320;2023-01-29T09:29:49;101683.69;;;1.87;100.00
7168;BME280;3625;51.762;14.320;2023-01-29T09:32:31;101678.53;;;1.88;100.00
7168;BME280;3625;51.762;14.320;2023-01-29T09:35:22;101679.97;;;1.79;100.00
7168;BME280;3625;51.762;14.320;2023-01-29T09:37:53;101674.81;;;1.82;100.00
7168;BME280;3625;51.762;14.320;2023-01-29T09:40:57;101556.41;;;0.98;100.00
7168;BME280;3625;51.762;14.320;2023-01-29T09:43:50;101609.16;;;1.41;100.00
7168;BME280;3625;51.762;14.320;2023-01-29T09:46:39;101418.53;;;0.25;100.00
7168;BME280;3625;51.762;14.320;2023-01-29T09:49:36;101693.09;;;1.82;100.00
7168;BME280;3625;51.762;14.320;2023-01-29T09:55:51;101370.09;;;0.05;100.00
7168;BME280;3625;51.762;14.320;2023-01-29T09:58:49;101684.84;;;1.95;100.00
7168;BME280;3625;51.762;14.320;2023-01-29T10:01:31;101683.16;;;1.97;100.00
7168;BME280;3625;51.762;14.320;2023-01-29T10:05:07;101672.03;;;1.76;100.00
7168;BME280;3625;51.762;14.320;2023-01-29T10:09:31;101397.25;;;0.13;100.00
7168;BME280;3625;51.762;14.320;2023-01-29T10:12:14;101671.19;;;1.77;100.00
7168;BME280;3625;51.762;14.320;2023-01-29T10:15:04;101664.44;;;1.83;100.00
7168;BME280;3625;51.762;14.320;2023-01-29T10:17:52;101659.75;;;1.73;100.00
7168;BME280;3625;51.762;14.320;2023-01-29T10:21:00;101650.47;;;1.55;100.00
7168;BME280;3625;51.762;14.320;2023-01-29T10:24:18;101653.31;;;1.62;100.00
7168;BME280;3625;51.762;14.320;2023-01-29T13:04:08;101248.88;;;1.87;99.81
7168;BME280;3625;51.762;14.320;2023-01-29T13:06:43;101461.38;;;2.96;100.00
7168;BME280;3625;51.762;14.320;2023-01-29T13:09:16;101451.06;;;3.00;100.00
7168;BME280;3625;51.762;14.320;2023-01-29T13:11:55;101442.25;;;2.97;100.00
7168;BME280;3625;51.762;14.320;2023-01-29T13:14:34;101454.59;;;3.02;100.00
7168;BME280;3625;51.762;14.320;2023-01-29T13:17:24;101394.16;;;2.90;100.00
7168;BME280;3625;51.762;14.320;2023-01-29T13:20:03;101343.47;;;2.46;100.00
7168;BME280;3625;51.762;14.320;2023-01-29T13:22:44;101444.16;;;3.04;100.00
7168;BME280;3625;51.762;14.320;2023-01-29T13:25:50;101436.41;;;2.73;100.00
7168;BME280;3625;51.762;14.320;2023-01-29T13:28:36;101437.66;;;2.88;100.00
7168;BME280;3625;51.762;14.320;2023-01-29T13:31:11;101434.44;;;2.98;100.00
7168;BME280;3625;51.762;14.320;2023-01-29T13:33:57;101428.47;;;3.02;100.00
7168;BME280;3625;51.762;14.320;2023-01-29T13:36:33;101429.66;;;2.81;100.00
7168;BME280;3625;51.762;14.320;2023-01-29T13:39:22;101426.53;;;2.61;100.00
7168;BME280;3625;51.762;14.320;2023-01-29T13:41:55;101415.63;;;2.77;100.00
7168;BME280;3625;51.762;14.320;2023-01-29T13:44:31;101419.31;;;2.85;100.00
7168;BME280;3625;51.762;14.320;2023-01-29T13:48:09;101418.56;;;2.91;100.00
7168;BME280;3625;51.762;14.320;2023-01-29T13:51:01;101422.78;;;2.84;100.00
7168;BME280;3625;51.762;14.320;2023-01-29T13:53:50;101421.28;;;2.95;100.00
7168;BME280;3625;51.762;14.320;2023-01-29T13:56:38;101413.34;;;2.91;100.00
7168;BME280;3625;51.762;14.320;2023-01-29T13:59:53;101231.13;;;1.73;100.00
7168;BME280;3625;51.762;14.320;2023-01-29T14:02:25;101421.91;;;2.84;100.00
7168;BME280;3625;51.762;14.320;2023-01-29T14:05:55;101289.19;;;1.99;100.00
7168;BME280;3625;51.762;14.320;2023-01-29T14:09:15;101406.00;;;2.75;100.00
7168;BME280;3625;51.762;14.320;2023-01-29T14:12:43;101410.34;;;2.74;100.00
7168;BME280;3625;51.762;14.320;2023-01-29T14:16:24;101408.50;;;2.72;100.00
7168;BME280;3625;51.762;14.320;2023-01-29T14:18:48;101415.19;;;2.60;100.00
7168;BME280;3625;51.762;14.320;2023-01-29T14:21:30;101420.41;;;2.60;100.00
7168;BME280;3625;51.762;14.320;2023-01-29T14:24:20;101418.50;;;2.53;100.00
7168;BME280;3625;51.762;14.320;2023-01-29T14:27:00;101425.22;;;2.44;100.00
7168;BME280;3625;51.762;14.320;2023-01-29T14:29:41;101421.91;;;2.51;100.00
7168;BME280;3625;51.762;14.320;2023-01-29T14:32:33;101425.53;;;2.56;100.00
7168;BME280;3625;51.762;14.320;2023-01-29T14:35:19;101413.09;;;2.46;100.00
7168;BME280;3625;51.762;14.320;2023-01-29T14:38:33;101421.69;;;2.42;100.00
7168;BME280;3625;51.762;14.320;2023-01-29T14:41:23;101416.47;;;2.42;100.00
7168;BME280;3625;51.762;14.320;2023-01-29T14:48:36;101364.38;;;2.13;100.00
7168;BME280;3625;51.762;14.320;2023-01-29T14:51:18;101412.06;;;2.39;100.00
7168;BME280;3625;51.762;14.320;2023-01-29T14:54:24;101412.66;;;2.29;100.00
7168;BME280;3625;51.762;14.320;2023-01-29T14:57:00;101410.66;;;2.20;100.00
7168;BME280;3625;51.762;14.320;2023-01-29T14:59:34;101412.34;;;2.18;100.00
7168;BME280;3625;51.762;14.320;2023-01-29T15:02:19;101406.19;;;2.16;100.00
7168;BME280;3625;51.762;14.320;2023-01-29T15:05:00;101400.06;;;2.14;100.00
7168;BME280;3625;51.762;14.320;2023-01-29T15:07:45;101406.00;;;2.09;100.00
7168;BME280;3625;51.762;14.320;2023-01-29T15:10:47;101404.38;;;2.12;100.00
7168;BME280;3625;51.762;14.320;2023-01-29T15:13:40;101398.47;;;2.19;100.00
7168;BME280;3625;51.762;14.320;2023-01-29T15:16:33;101395.75;;;2.16;100.00
7168;BME280;3625;51.762;14.320;2023-01-29T15:19:17;101385.41;;;2.19;100.00
7168;BME280;3625;51.762;14.320;2023-01-29T15:22:22;101392.25;;;2.14;100.00
7168;BME280;3625;51.762;14.320;2023-01-29T15:25:37;101323.25;;;1.72;100.00
7168;BME280;3625;51.762;14.320;2023-01-29T15:28:36;101389.19;;;1.98;100.00
7168;BME280;3625;51.762;14.320;2023-01-29T15:31:10;101384.69;;;1.94;100.00
7168;BME280;3625;51.762;14.320;2023-01-29T15:33:45;101385.34;;;1.85;100.00
7168;BME280;3625;51.762;14.320;2023-01-29T15:36:19;101377.50;;;1.85;100.00
7168;BME280;3625;51.762;14.320;2023-01-29T15:39:15;101079.84;;;0.11;100.00
7168;BME280;3625;51.762;14.320;2023-01-29T15:42:40;101050.63;;;-0.09;100.00
7168;BME280;3625;51.762;14.320;2023-01-29T15:45:26;101356.53;;;1.82;100.00
7168;BME280;3625;51.762;14.320;2023-01-29T15:48:11;101333.50;;;1.66;100.00
7168;BME280;3625;51.762;14.320;2023-01-29T15:50:55;101353.81;;;1.77;100.00
7168;BME280;3625;51.762;14.320;2023-01-29T15:53:35;101352.09;;;1.78;100.00
7168;BME280;3625;51.762;14.320;2023-01-29T15:56:28;101339.22;;;1.84;100.00
7168;BME280;3625;51.762;14.320;2023-01-29T15:59:01;101345.16;;;1.78;100.00
7168;BME280;3625;51.762;14.320;2023-01-29T16:01:49;101346.88;;;1.78;100.00
7168;BME280;3625;51.762;14.320;2023-01-29T16:04:26;101341.53;;;1.73;100.00
7168;BME280;3625;51.762;14.320;2023-01-29T16:06:58;101337.19;;;1.74;100.00
7168;BME280;3625;51.762;14.320;2023-01-29T16:09:28;101335.59;;;1.79;100.00
7168;BME280;3625;51.762;14.320;2023-01-29T16:11:59;101331.31;;;1.81;100.00
7168;BME280;3625;51.762;14.320;2023-01-29T16:14:45;101334.56;;;1.72;100.00
7168;BME280;3625;51.762;14.320;2023-01-29T16:17:31;101343.19;;;1.70;100.00
7168;BME280;3625;51.762;14.320;2023-01-29T16:20:43;101075.69;;;0.18;100.00
7168;BME280;3625;51.762;14.320;2023-01-29T16:23:50;101334.53;;;1.71;100.00
7168;BME280;3625;51.762;14.320;2023-01-29T16:26:41;101335.50;;;1.76;100.00
7168;BME280;3625;51.762;14.320;2023-01-29T16:29:21;101331.13;;;1.75;100.00
7168;BME280;3625;51.762;14.320;2023-01-29T16:32:04;101333.59;;;1.69;100.00
7168;BME280;3625;51.762;14.320;2023-01-29T16:34:45;101328.38;;;1.69;100.00
7168;BME280;3625;51.762;14.320;2023-01-29T16:37:24;101323.06;;;1.66;100.00
7168;BME280;3625;51.762;14.320;2023-01-29T16:40:26;101319.56;;;1.65;100.00
7168;BME280;3625;51.762;14.320;2023-01-29T16:43:51;101321.28;;;1.63;100.00
7168;BME280;3625;51.762;14.320;2023-01-29T16:46:43;101316.84;;;1.61;100.00
7168;BME280;3625;51.762;14.320;2023-01-29T16:49:53;101229.28;;;1.06;100.00
7168;BME280;3625;51.762;14.320;2023-01-29T16:52:26;101183.47;;;0.83;100.00
7168;BME280;3625;51.762;14.320;2023-01-29T16:55:17;101322.06;;;1.61;100.00